createdAt,value
2018-06-29T00:02:15.079Z,8.77
2018-06-29T00:04:42.357Z,8.63
2018-06-29T00:07:09.608Z,8.77
2018-06-29T00:09:36.875Z,9.07
2018-06-29T00:12:04.297Z,8.73
2018-06-29T00:14:31.556Z,8.20
2018-06-29T00:16:59.176Z,8.90
2018-06-29T00:19:26.446Z,8.20
2018-06-29T00:21:54.454Z,9.60
2018-06-29T00:24:22.230Z,9.57
2018-06-29T00:26:49.506Z,9.33
2018-06-29T00:29:16.770Z,8.70
2018-06-29T00:31:44.061Z,9.40
2018-06-29T00:34:11.353Z,8.83
2018-06-29T00:36:38.556Z,9.30
2018-06-29T00:39:06.453Z,8.97
2018-06-29T00:41:33.686Z,9.27
2018-06-29T00:44:00.951Z,9.60
2018-06-29T00:46:28.210Z,8.70
2018-06-29T00:48:55.487Z,8.90
2018-06-29T00:51:22.741Z,8.90
2018-06-29T00:53:50.006Z,8.70
2018-06-29T00:56:17.281Z,8.87
2018-06-29T00:58:44.522Z,10.03
2018-06-29T01:01:11.770Z,8.57
2018-06-29T01:03:39.013Z,9.57
2018-06-29T01:06:06.310Z,9.30
2018-06-29T01:08:33.633Z,7.93
2018-06-29T01:11:00.866Z,9.10
2018-06-29T01:13:28.132Z,9.10
2018-06-29T01:15:55.480Z,8.87
2018-06-29T01:18:22.753Z,9.10
2018-06-29T01:20:49.991Z,8.43
2018-06-29T01:23:17.212Z,9.60
2018-06-29T01:25:44.441Z,9.07
2018-06-29T01:28:11.713Z,9.30
2018-06-29T01:30:39.014Z,9.40
2018-06-29T01:33:06.332Z,8.80
2018-06-29T01:35:33.668Z,8.73
2018-06-29T01:38:01.015Z,8.77
2018-06-29T01:40:28.291Z,8.77
2018-06-29T01:42:55.592Z,8.87
2018-06-29T01:45:22.940Z,8.47
2018-06-29T01:47:50.191Z,9.07
2018-06-29T01:50:17.468Z,9.37
2018-06-29T01:52:44.812Z,9.23
2018-06-29T01:55:12.112Z,9.93
2018-06-29T01:57:39.448Z,9.03
2018-06-29T02:00:06.740Z,9.27
2018-06-29T02:02:34.005Z,9.40
2018-06-29T02:05:01.272Z,9.00
2018-06-29T02:07:28.551Z,8.87
2018-06-29T02:09:55.901Z,9.30
2018-06-29T02:12:23.177Z,9.40
2018-06-29T02:14:50.494Z,8.70
2018-06-29T02:17:17.844Z,8.43
2018-06-29T02:19:45.140Z,9.10
2018-06-29T02:22:12.447Z,8.93
2018-06-29T02:24:39.740Z,9.30
2018-06-29T02:27:07.388Z,8.80
2018-06-29T02:29:35.180Z,8.60
2018-06-29T02:32:02.529Z,8.90
2018-06-29T02:34:29.777Z,8.77
2018-06-29T02:36:57.095Z,9.20
2018-06-29T02:39:24.380Z,9.00
2018-06-29T02:41:51.817Z,8.70
2018-06-29T02:44:19.101Z,8.97
2018-06-29T02:46:46.400Z,8.37
2018-06-29T02:49:13.740Z,8.03
2018-06-29T02:51:41.025Z,8.77
2018-06-29T02:54:08.341Z,8.83
2018-06-29T02:56:35.724Z,9.10
2018-06-29T02:59:03.038Z,8.50
2018-06-29T03:01:30.368Z,9.30
2018-06-29T03:03:57.634Z,8.63
2018-06-29T03:06:24.956Z,8.87
2018-06-29T03:08:52.248Z,9.00
2018-06-29T03:11:19.556Z,9.27
2018-06-29T03:13:46.852Z,9.77
2018-06-29T03:16:14.172Z,9.20
2018-06-29T03:18:41.428Z,9.23
2018-06-29T03:21:08.727Z,9.67
2018-06-29T03:23:35.987Z,9.20
2018-06-29T03:26:03.372Z,8.87
2018-06-29T03:28:30.656Z,8.50
2018-06-29T03:30:58.056Z,8.43
2018-06-29T03:33:25.364Z,8.67
2018-06-29T03:35:52.658Z,8.93
2018-06-29T03:38:19.929Z,8.53
2018-06-29T03:40:47.261Z,8.30
2018-06-29T03:43:14.532Z,8.70
2018-06-29T03:45:41.852Z,8.43
2018-06-29T03:48:09.180Z,8.93
2018-06-29T03:50:36.468Z,9.07
2018-06-29T03:53:03.800Z,8.80
2018-06-29T03:55:31.084Z,9.80
2018-06-29T03:57:58.348Z,8.83
2018-06-29T04:00:25.648Z,9.77
2018-06-29T04:02:52.964Z,9.37
2018-06-29T04:05:20.260Z,9.00
2018-06-29T04:07:47.526Z,9.43
2018-06-29T04:10:14.895Z,9.40
2018-06-29T04:12:42.204Z,9.33
2018-06-29T04:15:09.533Z,9.20
2018-06-29T04:17:36.832Z,8.80
2018-06-29T04:20:04.551Z,8.43
2018-06-29T04:22:31.812Z,8.80
2018-06-29T04:25:01.361Z,8.77
2018-06-29T04:27:28.911Z,10.43
2018-06-29T04:29:56.404Z,10.00
2018-06-29T04:32:23.727Z,9.50
2018-06-29T04:34:51.111Z,9.40
2018-06-29T04:37:18.421Z,9.80
2018-06-29T04:39:45.692Z,8.93
2018-06-29T04:42:12.987Z,9.13
2018-06-29T04:44:40.272Z,8.87
2018-06-29T04:47:07.520Z,9.40
2018-06-29T04:49:34.804Z,8.97
2018-06-29T04:52:02.040Z,9.30
2018-06-29T04:54:29.287Z,9.40
2018-06-29T04:56:56.532Z,8.43
2018-06-29T04:59:23.799Z,9.03
2018-06-29T05:01:51.065Z,8.90
2018-06-29T05:04:18.343Z,8.67
2018-06-29T05:06:45.630Z,9.50
2018-06-29T05:09:12.921Z,9.00
2018-06-29T05:11:40.176Z,8.60
2018-06-29T05:14:07.468Z,9.93
2018-06-29T05:16:34.777Z,8.67
2018-06-29T05:19:02.046Z,9.90
2018-06-29T05:21:29.333Z,9.60
2018-06-29T05:23:56.606Z,9.20
2018-06-29T05:26:23.863Z,8.80
2018-06-29T05:28:51.282Z,9.60
2018-06-29T05:31:18.565Z,9.60
2018-06-29T05:33:45.823Z,9.87
2018-06-29T05:36:13.076Z,9.10
2018-06-29T05:38:40.408Z,9.07
2018-06-29T05:41:07.692Z,9.87
2018-06-29T05:43:34.979Z,9.47
2018-06-29T05:46:02.314Z,10.33
2018-06-29T05:48:29.584Z,9.40
2018-06-29T05:50:56.840Z,9.63
2018-06-29T05:53:24.084Z,9.50
2018-06-29T05:55:51.409Z,9.70
2018-06-29T05:58:18.676Z,8.63
2018-06-29T06:00:46.013Z,8.90
2018-06-29T06:03:13.255Z,7.97
2018-06-29T06:05:40.498Z,8.63
2018-06-29T06:08:07.755Z,8.10
2018-06-29T06:10:35.035Z,9.17
2018-06-29T06:13:02.368Z,8.33
2018-06-29T06:15:29.641Z,8.83
2018-06-29T06:17:56.904Z,8.93
2018-06-29T06:20:26.520Z,8.33
2018-06-29T06:22:53.760Z,8.00
2018-06-29T06:25:21.021Z,7.80
2018-06-29T06:27:48.297Z,8.27
2018-06-29T06:30:15.580Z,8.77
2018-06-29T06:32:42.818Z,7.23
2018-06-29T06:35:10.085Z,8.73
2018-06-29T06:37:37.352Z,8.63
2018-06-29T06:40:04.776Z,8.50
2018-06-29T06:42:32.040Z,7.53
2018-06-29T06:44:59.279Z,7.53
2018-06-29T06:47:26.559Z,7.30
2018-06-29T06:49:53.861Z,6.67
2018-06-29T06:52:21.160Z,5.67
2018-06-29T06:54:48.429Z,5.43
2018-06-29T06:57:15.711Z,5.57
2018-06-29T06:59:42.979Z,5.13
2018-06-29T07:02:10.293Z,5.00
2018-06-29T07:04:37.559Z,5.13
2018-06-29T07:07:04.823Z,4.80
2018-06-29T07:09:32.119Z,4.80
2018-06-29T07:11:59.472Z,5.30
2018-06-29T07:14:26.760Z,5.63
2018-06-29T07:16:54.048Z,4.70
2018-06-29T07:19:21.320Z,5.40
2018-06-29T07:21:48.596Z,5.17
2018-06-29T07:24:15.855Z,5.00
2018-06-29T07:26:43.124Z,4.80
2018-06-29T07:29:10.444Z,4.70
2018-06-29T07:31:37.700Z,4.80
2018-06-29T07:34:04.956Z,5.40
2018-06-29T07:36:32.238Z,4.50
2018-06-29T07:38:59.556Z,5.30
2018-06-29T07:41:26.819Z,5.10
2018-06-29T07:43:54.104Z,4.80
2018-06-29T07:46:21.339Z,5.10
2018-06-29T07:48:48.593Z,4.40
2018-06-29T07:51:15.948Z,4.90
2018-06-29T07:53:43.223Z,4.40
2018-06-29T07:56:10.578Z,4.90
2018-06-29T07:58:37.878Z,4.10
2018-06-29T08:01:05.428Z,4.43
2018-06-29T08:03:34.652Z,5.33
2018-06-29T08:06:01.968Z,5.77
2018-06-29T08:08:29.620Z,4.60
2018-06-29T08:10:56.972Z,4.40
2018-06-29T08:13:24.964Z,5.20
2018-06-29T08:15:52.902Z,4.87
2018-06-29T08:18:20.363Z,4.80
2018-06-29T08:20:47.752Z,4.50
2018-06-29T08:23:15.133Z,4.43
2018-06-29T08:25:42.425Z,4.20
2018-06-29T08:28:09.719Z,4.70
2018-06-29T08:30:36.996Z,4.60
2018-06-29T08:33:04.324Z,4.50
2018-06-29T08:35:31.628Z,4.93
2018-06-29T08:37:59.021Z,5.00
2018-06-29T08:40:26.321Z,4.37
2018-06-29T08:42:53.619Z,4.50
2018-06-29T08:45:20.936Z,5.63
2018-06-29T08:47:48.244Z,4.43
2018-06-29T08:50:15.552Z,5.17
2018-06-29T08:52:42.818Z,4.43
2018-06-29T08:55:10.157Z,5.60
2018-06-29T08:57:37.348Z,4.73
2018-06-29T09:00:05.781Z,3.90
2018-06-29T09:02:33.037Z,4.20
2018-06-29T09:05:00.430Z,4.40
2018-06-29T09:07:27.631Z,4.30
2018-06-29T09:09:54.898Z,4.73
2018-06-29T09:12:22.205Z,4.53
2018-06-29T09:14:49.495Z,4.07
2018-06-29T09:17:16.786Z,4.60
2018-06-29T09:19:44.051Z,4.40
2018-06-29T09:22:11.332Z,5.23
2018-06-29T09:24:38.599Z,5.10
2018-06-29T09:27:05.855Z,5.10
2018-06-29T09:29:33.112Z,4.43
2018-06-29T09:32:00.480Z,4.20
2018-06-29T09:34:27.745Z,4.30
2018-06-29T09:36:55.024Z,4.60
2018-06-29T09:39:22.299Z,4.73
2018-06-29T09:41:49.572Z,4.50
2018-06-29T09:44:16.901Z,4.60
2018-06-29T09:46:44.184Z,4.40
2018-06-29T09:49:11.492Z,4.60
2018-06-29T09:51:38.760Z,4.97
2018-06-29T09:54:06.088Z,5.03
2018-06-29T09:56:33.376Z,4.60
2018-06-29T09:59:00.668Z,4.03
2018-06-29T10:01:28.084Z,4.17
2018-06-29T10:03:55.387Z,4.60
2018-06-29T10:06:22.752Z,5.50
2018-06-29T10:08:50.140Z,4.70
2018-06-29T10:11:17.439Z,4.80
2018-06-29T10:13:44.852Z,4.77
2018-06-29T10:16:12.144Z,4.80
2018-06-29T10:18:39.468Z,3.80
2018-06-29T10:21:06.741Z,4.30
2018-06-29T10:23:34.072Z,4.30
2018-06-29T10:26:01.445Z,5.00
2018-06-29T10:28:29.160Z,5.10
2018-06-29T10:30:56.474Z,4.70
2018-06-29T10:33:23.753Z,4.40
2018-06-29T10:35:51.048Z,5.00
2018-06-29T10:38:18.341Z,4.97
2018-06-29T10:40:45.699Z,4.77
2018-06-29T10:43:12.991Z,4.50
2018-06-29T10:45:40.384Z,4.70
2018-06-29T10:48:07.664Z,4.40
2018-06-29T10:50:34.936Z,4.63
2018-06-29T10:53:02.212Z,4.90
2018-06-29T10:55:29.581Z,4.60
2018-06-29T10:57:56.967Z,4.37
2018-06-29T11:00:24.248Z,4.73
2018-06-29T11:02:51.538Z,4.70
2018-06-29T11:05:18.816Z,4.63
2018-06-29T11:07:46.185Z,4.77
2018-06-29T11:10:13.480Z,4.40
2018-06-29T11:12:40.788Z,4.20
2018-06-29T11:15:08.642Z,4.87
2018-06-29T11:17:35.911Z,4.60
2018-06-29T11:20:03.493Z,4.40
2018-06-29T11:22:30.761Z,4.83
2018-06-29T11:24:58.071Z,4.20
2018-06-29T11:27:25.337Z,4.70
2018-06-29T11:29:52.645Z,4.57
2018-06-29T11:32:19.937Z,4.43
2018-06-29T11:34:47.266Z,4.00
2018-06-29T11:37:14.649Z,5.47
2018-06-29T11:39:41.994Z,4.13
2018-06-29T11:42:09.392Z,4.60
2018-06-29T11:44:36.712Z,3.97
2018-06-29T11:47:04.149Z,3.87
2018-06-29T11:49:31.460Z,4.30
2018-06-29T11:51:58.964Z,4.83
2018-06-29T11:54:26.304Z,4.30
2018-06-29T11:56:53.572Z,4.90
2018-06-29T11:59:20.824Z,4.53
2018-06-29T12:01:48.211Z,5.03
2018-06-29T12:04:15.463Z,5.53
2018-06-29T12:06:42.804Z,4.90
2018-06-29T12:09:11.528Z,4.50
2018-06-29T12:11:39.212Z,5.00
2018-06-29T12:14:06.713Z,4.70
2018-06-29T12:16:34.065Z,5.10
2018-06-29T12:19:01.385Z,4.73
2018-06-29T12:21:28.696Z,5.10
2018-06-29T12:23:56.038Z,4.70
2018-06-29T12:26:23.384Z,5.07
2018-06-29T12:28:50.660Z,4.00
2018-06-29T12:31:18.157Z,4.50
2018-06-29T12:33:45.403Z,4.43
2018-06-29T12:36:12.667Z,4.40
2018-06-29T12:38:39.937Z,5.43
2018-06-29T12:41:07.331Z,4.00
2018-06-29T12:43:34.718Z,5.07
2018-06-29T12:46:02.036Z,5.10
2018-06-29T12:48:29.356Z,5.27
2018-06-29T12:50:56.632Z,5.37
2018-06-29T12:53:24.168Z,4.73
2018-06-29T12:55:51.500Z,4.70
2018-06-29T12:58:18.757Z,4.73
2018-06-29T13:00:46.056Z,4.13
2018-06-29T13:03:13.391Z,4.50
2018-06-29T13:05:40.704Z,4.40
2018-06-29T13:08:08.044Z,5.43
2018-06-29T13:10:35.299Z,4.33
2018-06-29T13:13:02.592Z,4.00
2018-06-29T13:15:29.843Z,5.40
2018-06-29T13:17:57.129Z,4.53
2018-06-29T13:20:24.407Z,4.20
2018-06-29T13:22:51.687Z,4.40
2018-06-29T13:25:19.078Z,5.03
2018-06-29T13:27:46.283Z,4.33
2018-06-29T13:30:13.561Z,4.60
2018-06-29T13:32:40.831Z,4.80
2018-06-29T13:35:08.145Z,4.43
2018-06-29T13:37:35.444Z,4.27
2018-06-29T13:40:02.791Z,4.53
2018-06-29T13:42:30.093Z,4.40
2018-06-29T13:44:57.393Z,4.40
2018-06-29T13:47:24.663Z,4.10
2018-06-29T13:49:51.980Z,4.90
2018-06-29T13:52:19.263Z,5.00
2018-06-29T13:54:46.569Z,4.77
2018-06-29T13:57:13.808Z,4.23
2018-06-29T13:59:41.096Z,3.60
2018-06-29T14:02:08.708Z,4.10
2018-06-29T14:04:36.009Z,4.70
2018-06-29T14:07:03.288Z,4.00
2018-06-29T14:09:30.571Z,3.67
2018-06-29T14:11:57.845Z,3.83
2018-06-29T14:14:25.132Z,4.17
2018-06-29T14:16:52.419Z,4.23
2018-06-29T14:19:19.720Z,4.63
2018-06-29T14:21:47.021Z,4.37
2018-06-29T14:24:14.284Z,3.83
2018-06-29T14:26:41.572Z,4.30
2018-06-29T14:29:09.007Z,4.07
2018-06-29T14:31:36.287Z,4.20
2018-06-29T14:34:03.554Z,4.13
2018-06-29T14:36:30.828Z,3.70
2018-06-29T14:38:58.112Z,4.10
2018-06-29T14:41:25.416Z,4.70
2018-06-29T14:43:53.015Z,4.20
2018-06-29T14:46:20.351Z,4.87
2018-06-29T14:48:47.579Z,4.40
2018-06-29T14:51:14.897Z,4.57
2018-06-29T14:53:42.257Z,4.50
2018-06-29T14:56:09.556Z,4.40
2018-06-29T14:58:36.860Z,4.00
2018-06-29T15:01:04.224Z,4.33
2018-06-29T15:03:31.503Z,4.20
2018-06-29T15:05:58.832Z,4.13
2018-06-29T15:08:26.112Z,4.93
2018-06-29T15:10:53.416Z,4.43
2018-06-29T15:13:20.716Z,5.30
2018-06-29T15:15:48.054Z,4.23
2018-06-29T15:18:15.357Z,4.30
2018-06-29T15:20:42.680Z,4.10
2018-06-29T15:23:10.033Z,4.73
2018-06-29T15:25:37.309Z,4.20
2018-06-29T15:28:05.135Z,4.33
2018-06-29T15:30:32.400Z,4.47
2018-06-29T15:32:59.776Z,4.23
2018-06-29T15:35:27.091Z,5.30
2018-06-29T15:37:54.464Z,4.30
2018-06-29T15:40:21.775Z,4.50
2018-06-29T15:42:49.080Z,4.30
2018-06-29T15:45:16.489Z,4.83
2018-06-29T15:47:43.771Z,4.37
2018-06-29T15:50:11.075Z,4.60
2018-06-29T15:52:38.340Z,6.57
2018-06-29T15:55:05.645Z,5.40
2018-06-29T15:57:33.050Z,4.73
2018-06-29T16:00:00.519Z,4.17
2018-06-29T16:02:27.844Z,4.40
2018-06-29T16:04:55.143Z,4.00
2018-06-29T16:07:22.952Z,4.37
2018-06-29T16:09:50.218Z,4.60
2018-06-29T16:12:17.626Z,4.83
2018-06-29T16:14:44.852Z,4.93
2018-06-29T16:17:12.230Z,4.80
2018-06-29T16:19:39.512Z,4.63
2018-06-29T16:22:06.844Z,5.10
2018-06-29T16:24:34.233Z,4.50
2018-06-29T16:27:01.535Z,5.07
2018-06-29T16:29:28.859Z,4.20
2018-06-29T16:31:56.165Z,4.67
2018-06-29T16:34:23.496Z,4.70
2018-06-29T16:36:50.792Z,4.70
2018-06-29T16:39:18.092Z,4.93
2018-06-29T16:41:45.493Z,5.00
2018-06-29T16:44:12.796Z,4.80
2018-06-29T16:46:40.131Z,4.70
2018-06-29T16:49:07.546Z,4.57
2018-06-29T16:51:35.571Z,4.87
2018-06-29T16:54:02.895Z,4.50
2018-06-29T16:56:30.156Z,4.53
2018-06-29T16:58:57.452Z,4.97
2018-06-29T17:01:24.692Z,4.87
2018-06-29T17:03:51.951Z,4.63
2018-06-29T17:06:19.277Z,4.67
2018-06-29T17:08:46.833Z,4.43
2018-06-29T17:11:14.214Z,4.87
2018-06-29T17:13:41.460Z,5.10
2018-06-29T17:16:09.056Z,4.33
2018-06-29T17:18:36.345Z,4.47
2018-06-29T17:21:03.589Z,4.00
2018-06-29T17:23:30.841Z,4.33
2018-06-29T17:25:58.068Z,4.93
2018-06-29T17:28:25.332Z,4.93
2018-06-29T17:30:52.588Z,4.50
2018-06-29T17:33:19.896Z,4.47
2018-06-29T17:35:47.110Z,4.80
2018-06-29T17:38:14.460Z,4.13
2018-06-29T17:40:41.759Z,4.83
2018-06-29T17:43:08.951Z,4.53
2018-06-29T17:45:36.307Z,5.03
2018-06-29T17:48:03.612Z,4.93
2018-06-29T17:50:30.888Z,4.57
2018-06-29T17:52:58.204Z,4.67
2018-06-29T17:55:25.654Z,5.07
2018-06-29T17:57:52.858Z,4.80
2018-06-29T18:00:20.343Z,4.60
2018-06-29T18:02:47.643Z,5.00
2018-06-29T18:05:14.943Z,5.03
2018-06-29T18:07:42.260Z,5.50
2018-06-29T18:10:09.572Z,5.13
2018-06-29T18:12:36.881Z,4.10
2018-06-29T18:15:04.175Z,4.80
2018-06-29T18:17:31.469Z,4.40
2018-06-29T18:19:58.761Z,4.50
2018-06-29T18:22:26.144Z,4.90
2018-06-29T18:24:53.420Z,4.77
2018-06-29T18:27:20.804Z,4.73
2018-06-29T18:29:48.156Z,4.80
2018-06-29T18:32:15.436Z,4.57
2018-06-29T18:34:42.735Z,4.50
2018-06-29T18:37:10.036Z,5.23
2018-06-29T18:39:37.324Z,4.70
2018-06-29T18:42:05.092Z,5.17
2018-06-29T18:44:32.331Z,5.30
2018-06-29T18:46:59.740Z,4.23
2018-06-29T18:49:27.059Z,4.90
2018-06-29T18:51:54.348Z,5.00
2018-06-29T18:54:21.636Z,5.00
2018-06-29T18:56:48.976Z,5.07
2018-06-29T18:59:16.308Z,4.77
2018-06-29T19:01:43.621Z,5.00
2018-06-29T19:04:11.068Z,5.03
2018-06-29T19:06:38.340Z,5.27
2018-06-29T19:09:06.335Z,5.10
2018-06-29T19:11:33.599Z,5.20
2018-06-29T19:14:00.948Z,5.03
2018-06-29T19:16:28.216Z,5.00
2018-06-29T19:18:55.566Z,5.40
2018-06-29T19:21:22.808Z,6.00
2018-06-29T19:23:50.064Z,5.13
2018-06-29T19:26:17.432Z,5.07
2018-06-29T19:28:44.699Z,5.00
2018-06-29T19:31:12.084Z,5.17
2018-06-29T19:33:39.310Z,5.40
2018-06-29T19:36:06.540Z,5.20
2018-06-29T19:38:33.829Z,5.80
2018-06-29T19:41:01.090Z,6.03
2018-06-29T19:43:28.423Z,5.97
2018-06-29T19:45:55.784Z,5.77
2018-06-29T19:48:23.055Z,5.77
2018-06-29T19:50:50.437Z,5.17
2018-06-29T19:53:17.684Z,5.60
2018-06-29T19:55:44.991Z,5.67
2018-06-29T19:58:12.306Z,5.40
2018-06-29T20:00:39.579Z,4.97
2018-06-29T20:03:06.838Z,5.57
2018-06-29T20:05:34.128Z,5.83
2018-06-29T20:08:01.528Z,5.27
2018-06-29T20:10:28.880Z,6.00
2018-06-29T20:12:56.196Z,5.43
2018-06-29T20:15:23.476Z,6.50
2018-06-29T20:17:50.796Z,5.60
2018-06-29T20:20:18.139Z,5.60
2018-06-29T20:22:45.416Z,5.90
2018-06-29T20:25:12.667Z,5.33
2018-06-29T20:27:39.936Z,5.67
2018-06-29T20:30:07.627Z,5.70
2018-06-29T20:32:34.951Z,5.77
2018-06-29T20:35:02.291Z,6.00
2018-06-29T20:37:29.683Z,6.60
2018-06-29T20:39:56.991Z,5.40
2018-06-29T20:42:24.311Z,7.03
2018-06-29T20:44:51.611Z,6.17
2018-06-29T20:47:18.872Z,6.57
2018-06-29T20:49:46.115Z,6.10
2018-06-29T20:52:13.464Z,8.17
2018-06-29T20:54:40.755Z,6.90
2018-06-29T20:57:08.104Z,10.63
2018-06-29T20:59:35.468Z,6.90
2018-06-29T21:02:02.816Z,6.70
2018-06-29T21:04:30.092Z,6.63
2018-06-29T21:06:57.418Z,6.33
2018-06-29T21:09:24.663Z,5.40
2018-06-29T21:14:31.360Z,6.47
2018-06-29T21:16:58.635Z,5.67
2018-06-29T21:19:25.901Z,7.23
2018-06-29T21:21:53.168Z,6.37
2018-06-29T21:24:20.450Z,7.60
2018-06-29T21:26:47.819Z,8.93
2018-06-29T21:29:15.056Z,13.73
2018-06-29T21:31:42.299Z,15.20
2018-06-29T21:34:09.570Z,12.70
2018-06-29T21:36:36.794Z,10.20
2018-06-29T21:39:05.489Z,8.37
2018-06-29T21:41:32.715Z,8.30
2018-06-29T21:43:59.960Z,7.27
2018-06-29T21:46:27.181Z,6.20
2018-06-29T21:48:54.407Z,6.33
2018-06-29T21:51:21.660Z,6.20
2018-06-29T21:53:48.940Z,5.93
2018-06-29T21:56:16.241Z,6.60
2018-06-29T21:58:43.475Z,7.50
2018-06-29T22:01:10.770Z,8.40
2018-06-29T22:03:38.019Z,8.10
2018-06-29T22:06:05.317Z,9.20
2018-06-29T22:08:32.641Z,10.10
2018-06-29T22:10:59.888Z,7.10
2018-06-29T22:13:27.148Z,6.20
2018-06-29T22:15:54.401Z,5.70
2018-06-29T22:18:21.656Z,6.00
2018-06-29T22:20:48.884Z,5.60
2018-06-29T22:23:16.139Z,6.13
2018-06-29T22:25:43.388Z,5.47
2018-06-29T22:28:10.627Z,5.60
2018-06-29T22:30:37.880Z,6.70
2018-06-29T22:33:05.204Z,6.30
2018-06-29T22:35:32.448Z,6.50
2018-06-29T22:37:59.692Z,6.63
2018-06-29T22:40:26.944Z,6.47
2018-06-29T22:42:54.192Z,6.27
2018-06-29T22:45:21.444Z,7.10
2018-06-29T22:47:48.708Z,6.60
2018-06-29T22:50:15.967Z,5.97
2018-06-29T22:52:43.213Z,5.53
2018-06-29T22:55:10.500Z,6.63
2018-06-29T22:57:37.740Z,6.20
2018-06-29T23:00:05.065Z,6.27
2018-06-29T23:02:32.321Z,6.30
2018-06-29T23:04:59.552Z,6.83
2018-06-29T23:07:26.848Z,5.43
2018-06-29T23:09:54.138Z,5.47
2018-06-29T23:12:21.436Z,6.20
2018-06-29T23:14:48.719Z,5.87
2018-06-29T23:17:15.972Z,6.00
2018-06-29T23:19:43.248Z,7.67
2018-06-29T23:22:10.560Z,6.00
2018-06-29T23:24:37.849Z,6.67
2018-06-29T23:27:05.156Z,5.43
2018-06-29T23:29:32.423Z,6.50
2018-06-29T23:31:59.782Z,6.23
2018-06-29T23:34:27.076Z,6.30
2018-06-29T23:36:54.428Z,5.57
2018-06-29T23:39:21.694Z,5.90
2018-06-29T23:41:48.954Z,5.30
2018-06-29T23:44:16.257Z,5.67
2018-06-29T23:46:43.520Z,5.60
2018-06-29T23:49:10.772Z,5.10
2018-06-29T23:51:38.096Z,5.90
2018-06-29T23:54:05.396Z,5.20
2018-06-29T23:56:32.672Z,5.40
2018-06-29T23:58:59.935Z,5.80
